KAST 251024Z 2510/2606 00000KT 1/2SM FG BKN002 OVC017
FM252100 01006KT P6SM BKN050
From batch tds/tafs/production/2023/1/25/h10_m29_tafs.cache.xml
Issued (10 days ago)
Forecasts
2510/2521 VRB00KT BKN200 OVC1700

---
wx_string: FG
fcst_time_to: '2023-01-25T21:00:00Z'
sky_condition:
- - sky_cover: BKN
    cloud_base_ft_agl: '200'
- - sky_cover: OVC
    cloud_base_ft_agl: '1700'
wind_speed_kt: '0'
fcst_time_from: '2023-01-25T10:00:00Z'
wind_dir_degrees: '0'
visibility_statute_mi: '0.5'

FM252100 1006KT P6SM BKN5000

---
fcst_time_to: '2023-01-26T06:00:00Z'
sky_condition:
- sky_cover: BKN
  cloud_base_ft_agl: '5000'
wind_speed_kt: '6'
fcst_time_from: '2023-01-25T21:00:00Z'
change_indicator: FM
wind_dir_degrees: '10'
visibility_statute_mi: '6.21'

talk